Time;durP1;ratioP1;P1;durP2;ratioP2;P2;SDS_P1;SDS_P2;PMS_P1;PMS_P2;Temp;Humidity;BMP_temperature;BMP_pressure;BME280_temperature;BME280_humidity;BME280_pressure;Samples;Min_cycle;Max_cycle;Signal;HPM_P1;HPM_P2
2023/05/06 00:00:58;;;;;;;2.65;2.45;;;;;;;13.59;93.35;95841.56;5051297;28;20044;-76
2023/05/06 00:03:23;;;;;;;6.05;2.78;;;;;;;13.60;91.94;95840.59;5053812;28;20078;-78
2023/05/06 00:05:49;;;;;;;3.55;2.78;;;;;;;13.58;91.99;95849.66;5053641;28;20393;-77
2023/05/06 00:08:15;;;;;;;2.40;2.20;;;;;;;13.53;92.75;95844.00;5053513;28;20021;-77
2023/05/06 00:10:40;;;;;;;2.65;2.45;;;;;;;13.52;92.44;95845.00;5052182;28;20027;-77
2023/05/06 00:13:07;;;;;;;2.97;2.47;;;;;;;13.50;92.20;95839.88;5038245;28;20114;-77
2023/05/06 00:15:32;;;;;;;2.70;2.50;;;;;;;13.46;92.54;95841.16;5054291;28;20021;-77
2023/05/06 00:17:59;;;;;;;3.08;2.78;;;;;;;13.42;93.04;95842.44;5053586;28;20043;-76
2023/05/06 00:20:24;;;;;;;3.00;2.70;;;;;;;13.43;91.83;95842.31;5053976;28;20021;-78
2023/05/06 00:22:50;;;;;;;3.03;2.50;;;;;;;13.45;91.75;95842.13;5055967;28;20504;-76
2023/05/06 00:25:15;;;;;;;3.97;2.47;;;;;;;13.38;91.86;95841.09;5056317;28;20025;-76
2023/05/06 00:27:40;;;;;;;3.88;2.55;;;;;;;13.38;91.37;95844.56;5055017;28;20025;-78
2023/05/06 00:30:07;;;;;;;6.35;2.92;;;;;;;13.37;92.60;95847.38;5056574;28;20024;-79
2023/05/06 00:32:32;;;;;;;3.17;2.88;;;;;;;13.39;91.41;95835.66;5056043;28;20025;-77
2023/05/06 00:34:57;;;;;;;2.97;2.78;;;;;;;13.35;93.84;95834.28;5056261;28;20028;-79
2023/05/06 00:37:23;;;;;;;2.75;2.35;;;;;;;13.28;94.27;95833.25;5056399;28;20051;-76
2023/05/06 00:39:48;;;;;;;3.05;2.80;;;;;;;13.27;95.06;95843.00;5054217;28;20037;-78
2023/05/06 00:42:15;;;;;;;6.32;2.88;;;;;;;13.27;94.58;95843.00;5054617;28;20060;-79
2023/05/06 00:44:40;;;;;;;3.47;2.50;;;;;;;13.28;93.17;95839.38;5058207;28;20033;-78
2023/05/06 00:47:06;;;;;;;2.92;2.72;;;;;;;13.31;92.08;95839.06;5055627;28;20397;-79
2023/05/06 00:49:32;;;;;;;4.07;2.40;;;;;;;13.33;91.58;95841.53;5056211;28;20025;-78
2023/05/06 00:51:58;;;;;;;5.70;2.65;;;;;;;13.36;91.67;95841.22;5053005;28;20051;-78
2023/05/06 00:54:25;;;;;;;3.30;2.97;;;;;;;13.34;92.50;95827.34;5052935;28;20230;-78
2023/05/06 00:56:50;;;;;;;5.28;2.90;;;;;;;13.24;94.70;95831.91;5054456;28;20025;-79
2023/05/06 00:59:16;;;;;;;2.63;2.42;;;;;;;13.16;94.95;95827.41;5052904;28;20017;-79
2023/05/06 01:01:42;;;;;;;3.13;2.92;;;;;;;13.08;94.95;95822.88;5051362;28;20084;-79
2023/05/06 01:04:07;;;;;;;2.88;2.55;;;;;;;13.05;94.62;95828.47;5054451;28;20093;-79
2023/05/06 01:06:38;;;;;;;3.17;2.88;;;;;;;13.07;94.09;95821.22;5055661;28;20197;-79
2023/05/06 01:09:18;;;;;;;3.00;2.72;;;;;;;13.03;95.41;95817.22;5055239;28;20063;-78
2023/05/06 01:11:56;;;;;;;2.95;2.70;;;;;;;12.96;96.62;95818.84;5052161;28;20117;-79
2023/05/06 01:14:30;;;;;;;2.97;2.78;;;;;;;12.97;95.51;95816.03;5055689;28;20063;-78
2023/05/06 01:17:02;;;;;;;3.30;3.00;;;;;;;12.96;96.44;95824.13;5055283;28;20401;-78
2023/05/06 01:19:40;;;;;;;3.35;2.85;;;;;;;12.87;97.56;95815.31;5055383;28;20025;-78
2023/05/06 01:22:08;;;;;;;2.67;2.47;;;;;;;12.81;96.75;95807.97;5054013;28;20389;-78
2023/05/06 01:24:42;;;;;;;2.97;2.70;;;;;;;12.79;98.21;95812.56;5037224;28;20386;-78
2023/05/06 01:27:08;;;;;;;2.85;2.65;;;;;;;12.77;98.33;95804.81;5052186;28;20036;-78
2023/05/06 01:29:37;;;;;;;5.22;2.55;;;;;;;12.78;96.54;95813.56;5055610;28;20031;-78
2023/05/06 01:32:16;;;;;;;2.85;2.65;;;;;;;12.74;96.63;95813.88;5055266;28;20367;-78
2023/05/06 01:34:53;;;;;;;3.17;2.90;;;;;;;12.72;96.15;95809.75;5055289;28;20021;-78
2023/05/06 01:37:31;;;;;;;4.95;2.90;;;;;;;12.74;95.68;95810.41;5055142;28;20477;-78
2023/05/06 01:39:58;;;;;;;3.65;2.75;;;;;;;12.73;96.50;95806.94;5059186;28;20054;-78
2023/05/06 01:42:26;;;;;;;3.85;2.90;;;;;;;12.69;96.91;95812.66;5053544;28;20029;-77
2023/05/06 01:44:55;;;;;;;4.93;2.80;;;;;;;12.68;96.29;95803.06;5053895;28;20029;-78
2023/05/06 01:47:21;;;;;;;3.95;3.20;;;;;;;12.68;97.30;95803.91;5052930;28;20017;-77
2023/05/06 01:49:47;;;;;;;4.75;2.70;;;;;;;12.56;97.56;95808.59;5055266;28;20032;-77
2023/05/06 01:52:14;;;;;;;3.95;3.55;;;;;;;12.55;96.29;95808.75;5052950;28;20021;-77
2023/05/06 01:54:40;;;;;;;3.15;2.80;;;;;;;12.48;98.05;95812.97;5053962;28;20030;-77
2023/05/06 01:57:05;;;;;;;3.67;2.88;;;;;;;12.43;97.18;95808.16;5054745;28;20473;-77
2023/05/06 01:59:31;;;;;;;4.13;2.90;;;;;;;12.38;98.97;95805.13;5054388;28;20493;-77
2023/05/06 02:01:56;;;;;;;5.65;3.08;;;;;;;12.34;98.40;95809.88;5055040;28;20055;-78
2023/05/06 02:04:22;;;;;;;4.72;3.20;;;;;;;12.34;97.96;95814.34;5054556;28;20017;-78
2023/05/06 02:06:47;;;;;;;3.22;3.03;;;;;;;12.31;97.73;95808.38;5053004;28;20051;-78
2023/05/06 02:09:12;;;;;;;4.28;3.08;;;;;;;12.32;97.35;95807.41;5035986;28;20048;-79
2023/05/06 02:11:38;;;;;;;4.07;2.97;;;;;;;12.28;98.70;95806.03;5051569;28;20140;-78
2023/05/06 02:14:03;;;;;;;2.70;2.60;;;;;;;12.23;98.55;95815.38;5054467;28;20080;-78
2023/05/06 02:16:28;;;;;;;3.58;3.28;;;;;;;12.25;97.60;95806.31;5053729;28;20020;-79
2023/05/06 02:18:54;;;;;;;5.45;3.38;;;;;;;12.20;98.99;95803.31;5052875;28;20028;-78
2023/05/06 02:21:20;;;;;;;4.10;3.20;;;;;;;12.15;98.93;95801.09;5053448;28;20025;-78
2023/05/06 02:23:45;;;;;;;3.88;2.90;;;;;;;12.11;99.15;95798.94;5056443;28;20052;-78
2023/05/06 02:26:11;;;;;;;2.83;2.63;;;;;;;12.12;98.81;95801.41;5058823;28;20036;-78
2023/05/06 02:28:36;;;;;;;3.22;2.63;;;;;;;12.17;98.20;95798.31;5040348;28;20025;-78
2023/05/06 02:31:01;;;;;;;3.10;2.90;;;;;;;12.12;99.56;95811.16;5058826;28;20021;-78
2023/05/06 02:33:27;;;;;;;3.08;2.88;;;;;;;12.05;100.00;95802.97;5058357;28;20021;-79
2023/05/06 02:35:52;;;;;;;3.75;3.40;;;;;;;11.99;100.00;95808.84;5059390;28;20032;-78
2023/05/06 02:38:18;;;;;;;3.33;3.10;;;;;;;11.98;99.74;95805.34;5063165;28;20056;-78
2023/05/06 02:40:44;;;;;;;2.70;2.60;;;;;;;11.97;100.00;95801.06;5058058;28;20074;-77
2023/05/06 02:43:09;;;;;;;6.03;2.95;;;;;;;11.94;100.00;95804.00;5057468;28;20013;-77
2023/05/06 02:45:35;;;;;;;3.08;2.38;;;;;;;11.87;100.00;95803.75;5040509;28;20021;-79
2023/05/06 02:48:00;;;;;;;3.00;2.80;;;;;;;11.83;100.00;95799.75;5056801;28;20028;-78
2023/05/06 02:50:25;;;;;;;3.28;2.83;;;;;;;11.82;100.00;95799.88;5058295;28;20039;-78
2023/05/06 02:52:51;;;;;;;2.90;2.70;;;;;;;11.82;100.00;95798.09;5058367;28;20021;-79
2023/05/06 02:55:17;;;;;;;3.58;2.40;;;;;;;11.80;100.00;95796.56;5056171;28;21657;-79
2023/05/06 02:57:43;;;;;;;2.70;2.50;;;;;;;11.81;99.44;95799.06;5056404;28;20613;-78
2023/05/06 03:00:09;;;;;;;2.88;2.67;;;;;;;11.85;99.66;95789.06;5056502;28;20025;-79
2023/05/06 03:02:35;;;;;;;3.72;2.45;;;;;;;11.81;100.00;95792.94;5055029;28;20389;-79
2023/05/06 03:05:03;;;;;;;2.80;2.65;;;;;;;11.75;100.00;95789.09;5056798;28;20071;-79
2023/05/06 03:07:29;;;;;;;2.95;2.70;;;;;;;11.67;100.00;95789.84;5055968;28;20021;-78
2023/05/06 03:09:54;;;;;;;3.92;2.88;;;;;;;11.63;100.00;95792.91;5056558;28;20021;-78
2023/05/06 03:12:20;;;;;;;7.95;2.80;;;;;;;11.66;100.00;95785.53;5049889;28;20033;-79
2023/05/06 03:14:45;;;;;;;3.25;2.97;;;;;;;11.60;100.00;95791.38;5049752;28;20106;-79
2023/05/06 03:17:11;;;;;;;2.80;2.60;;;;;;;11.56;100.00;95788.22;5055270;28;20036;-79
2023/05/06 03:19:36;;;;;;;2.90;2.70;;;;;;;11.51;100.00;95790.47;5057543;28;20047;-79
2023/05/06 03:22:02;;;;;;;4.72;3.05;;;;;;;11.48;100.00;95787.28;5056410;28;20108;-79
2023/05/06 03:24:27;;;;;;;4.10;2.63;;;;;;;11.45;100.00;95786.59;5057132;28;20017;-79
2023/05/06 03:26:53;;;;;;;2.55;2.35;;;;;;;11.46;100.00;95790.91;5057934;28;20024;-79
2023/05/06 03:29:18;;;;;;;3.20;2.53;;;;;;;11.43;100.00;95792.97;5038819;28;20016;-78
2023/05/06 03:31:44;;;;;;;5.00;2.88;;;;;;;11.40;100.00;95786.22;5054911;28;20075;-78
2023/05/06 03:34:09;;;;;;;4.03;2.63;;;;;;;11.40;100.00;95794.13;5055164;28;20024;-79
2023/05/06 03:36:35;;;;;;;4.43;2.75;;;;;;;11.45;100.00;95788.41;5057278;28;20024;-78
2023/05/06 03:39:00;;;;;;;3.28;2.50;;;;;;;11.43;100.00;95791.19;5055768;28;20037;-78
2023/05/06 03:41:26;;;;;;;2.80;2.60;;;;;;;11.39;100.00;95787.19;5056220;28;20412;-78
2023/05/06 03:43:51;;;;;;;3.10;2.50;;;;;;;11.34;100.00;95789.41;5055504;28;20071;-78
2023/05/06 03:46:16;;;;;;;4.53;3.17;;;;;;;11.32;100.00;95792.19;5070324;28;20033;-79
2023/05/06 03:48:42;;;;;;;4.05;2.80;;;;;;;11.30;100.00;95785.41;5054908;28;20081;-78
2023/05/06 03:51:07;;;;;;;3.17;2.65;;;;;;;11.33;100.00;95790.38;5022166;28;20021;-76
2023/05/06 03:53:33;;;;;;;4.43;2.78;;;;;;;11.36;100.00;95787.44;5052889;28;20044;-78
2023/05/06 03:56:00;;;;;;;2.90;2.70;;;;;;;11.34;100.00;95786.78;5056070;28;20021;-78
2023/05/06 03:58:26;;;;;;;3.42;3.13;;;;;;;11.31;100.00;95785.28;5072457;28;20595;-78
2023/05/06 04:00:51;;;;;;;3.17;2.97;;;;;;;11.28;100.00;95780.28;5054655;28;20047;-78
2023/05/06 04:03:17;;;;;;;2.70;2.50;;;;;;;11.29;100.00;95786.38;5051815;28;20025;-79
2023/05/06 04:05:42;;;;;;;7.50;2.85;;;;;;;11.31;100.00;95781.78;5040979;28;20032;-79
2023/05/06 04:08:08;;;;;;;4.65;2.78;;;;;;;11.33;100.00;95785.09;5045735;28;20029;-79
2023/05/06 04:10:40;;;;;;;3.83;2.85;;;;;;;11.36;100.00;95779.53;5056839;28;20720;-79
2023/05/06 04:13:06;;;;;;;2.92;2.80;;;;;;;11.32;100.00;95780.81;5052625;28;20033;-79
2023/05/06 04:15:33;;;;;;;3.85;2.95;;;;;;;11.37;100.00;95778.56;5056343;28;20029;-79
2023/05/06 04:17:59;;;;;;;7.50;2.97;;;;;;;11.39;100.00;95781.91;5055758;28;20460;-79
2023/05/06 04:20:24;;;;;;;3.50;3.20;;;;;;;11.33;100.00;95785.09;5056555;28;20048;-78
2023/05/06 04:22:50;;;;;;;4.22;3.20;;;;;;;11.32;100.00;95767.63;5056240;28;20032;-79
2023/05/06 04:25:17;;;;;;;6.75;3.90;;;;;;;11.31;100.00;95768.63;5055136;28;20480;-79
2023/05/06 04:27:42;;;;;;;4.38;3.35;;;;;;;11.25;100.00;95772.66;5056406;28;20394;-79
2023/05/06 04:30:09;;;;;;;3.75;3.45;;;;;;;11.21;100.00;95768.66;5057015;28;20032;-79
2023/05/06 04:32:35;;;;;;;3.55;3.25;;;;;;;11.16;100.00;95773.53;5050656;28;20448;-78
2023/05/06 04:35:01;;;;;;;6.03;3.10;;;;;;;11.16;100.00;95771.72;5055551;28;20024;-79
2023/05/06 04:37:27;;;;;;;5.30;3.30;;;;;;;11.20;100.00;95776.72;5050954;28;20496;-79
2023/05/06 04:39:53;;;;;;;3.40;3.20;;;;;;;11.24;100.00;95767.53;5053785;28;20143;-79
2023/05/06 04:42:18;;;;;;;4.47;3.40;;;;;;;11.22;100.00;95774.75;5055882;28;20080;-79
2023/05/06 04:44:44;;;;;;;3.60;2.80;;;;;;;11.18;100.00;95780.31;5039665;28;20544;-79
2023/05/06 04:47:10;;;;;;;3.45;2.67;;;;;;;11.16;100.00;95784.91;5055426;28;20029;-79
2023/05/06 04:49:35;;;;;;;6.85;3.10;;;;;;;11.15;100.00;95783.22;5054362;28;20115;-79
2023/05/06 04:52:01;;;;;;;3.05;2.85;;;;;;;11.12;100.00;95791.41;5056530;28;20021;-78
2023/05/06 04:54:26;;;;;;;5.68;3.28;;;;;;;11.17;100.00;95785.72;5051683;28;20026;-78
2023/05/06 04:56:52;;;;;;;4.55;3.50;;;;;;;11.16;100.00;95779.63;5052279;28;20465;-79
2023/05/06 04:59:18;;;;;;;3.13;2.88;;;;;;;11.17;100.00;95785.72;5053568;28;20025;-79
2023/05/06 05:01:43;;;;;;;13.05;4.22;;;;;;;11.21;100.00;95788.91;5053381;28;20413;-78
2023/05/06 05:04:08;;;;;;;4.03;3.22;;;;;;;11.29;100.00;95797.75;5050979;28;20032;-79
2023/05/06 05:06:34;;;;;;;6.93;3.35;;;;;;;11.43;100.00;95796.47;5047338;28;20029;-78
2023/05/06 05:08:59;;;;;;;23.65;17.73;;;;;;;11.37;100.00;95791.75;5052470;28;20021;-79
2023/05/06 05:11:25;;;;;;;10.73;7.93;;;;;;;11.34;100.00;95797.31;5054034;28;20029;-78
2023/05/06 05:13:50;;;;;;;4.50;3.97;;;;;;;11.37;100.00;95806.75;5054335;28;20013;-79
2023/05/06 05:16:16;;;;;;;5.35;3.35;;;;;;;11.39;100.00;95810.06;5047763;28;20039;-79
2023/05/06 05:18:41;;;;;;;6.43;3.58;;;;;;;11.44;100.00;95807.81;5046734;28;20021;-79
2023/05/06 05:21:07;;;;;;;4.60;2.92;;;;;;;11.57;100.00;95810.13;5050055;28;20025;-78
2023/05/06 05:23:32;;;;;;;5.40;2.90;;;;;;;11.73;100.00;95806.88;5044595;28;20021;-79
2023/05/06 05:25:58;;;;;;;5.72;2.60;;;;;;;11.82;100.00;95815.72;5055954;28;20037;-78
2023/05/06 05:28:24;;;;;;;3.17;2.92;;;;;;;11.85;100.00;95812.81;5052837;28;20529;-79
2023/05/06 05:30:49;;;;;;;9.38;3.00;;;;;;;11.93;100.00;95818.16;5070069;28;20060;-79
2023/05/06 05:33:15;;;;;;;4.22;2.95;;;;;;;12.02;100.00;95819.13;5054898;28;20013;-79
2023/05/06 05:35:40;;;;;;;5.45;3.28;;;;;;;12.17;100.00;95815.00;5055351;28;20078;-78
2023/05/06 05:38:06;;;;;;;3.72;3.15;;;;;;;12.36;100.00;95820.28;5054152;28;20100;-79
2023/05/06 05:40:31;;;;;;;4.78;3.58;;;;;;;12.48;100.00;95813.78;5054832;28;20029;-79
2023/05/06 05:42:56;;;;;;;6.95;3.80;;;;;;;12.61;100.00;95816.09;5036789;28;20025;-80
2023/05/06 05:45:22;;;;;;;3.67;3.13;;;;;;;12.68;100.00;95819.75;5054560;28;20036;-80
2023/05/06 05:47:47;;;;;;;9.15;2.90;;;;;;;12.78;100.00;95816.19;5048879;28;20027;-80
2023/05/06 05:50:13;;;;;;;3.90;2.72;;;;;;;12.83;100.00;95819.25;5054739;28;20025;-80
2023/05/06 05:52:38;;;;;;;12.00;3.10;;;;;;;12.94;100.00;95816.34;5054717;28;20021;-80
2023/05/06 05:55:04;;;;;;;6.53;2.70;;;;;;;13.08;100.00;95809.66;5055104;28;20057;-80
2023/05/06 05:57:29;;;;;;;2.95;2.67;;;;;;;13.21;99.34;95811.06;5052221;28;20828;-79
2023/05/06 05:59:55;;;;;;;4.70;2.80;;;;;;;13.32;99.22;95814.28;5055250;28;20025;-77
2023/05/06 06:02:20;;;;;;;5.30;2.90;;;;;;;13.46;98.42;95804.97;5051723;28;20133;-79
2023/05/06 06:04:45;;;;;;;4.25;3.00;;;;;;;13.64;97.00;95805.88;5051686;28;20032;-79
2023/05/06 06:07:11;;;;;;;3.03;2.55;;;;;;;13.77;95.13;95800.16;5055361;28;20025;-79
2023/05/06 06:09:36;;;;;;;5.53;2.85;;;;;;;13.90;93.92;95805.81;5054581;28;20021;-79
2023/05/06 06:12:02;;;;;;;3.03;2.63;;;;;;;13.98;92.72;95803.19;5033441;28;20033;-80
2023/05/06 06:14:27;;;;;;;3.40;3.10;;;;;;;14.15;90.08;95798.81;5050472;28;20028;-80
2023/05/06 06:16:52;;;;;;;4.18;2.95;;;;;;;14.34;88.43;95794.19;5054403;28;20298;-80
2023/05/06 06:19:18;;;;;;;4.10;2.75;;;;;;;14.58;87.29;95793.41;5044368;28;20604;-80
2023/05/06 06:21:43;;;;;;;4.10;3.10;;;;;;;14.81;84.62;95789.28;5052815;28;20024;-79
2023/05/06 06:24:09;;;;;;;5.55;2.85;;;;;;;15.02;84.58;95784.28;5049960;28;20029;-80
2023/05/06 06:26:34;;;;;;;6.43;2.70;;;;;;;15.22;84.60;95788.44;5054106;28;20037;-81
2023/05/06 06:28:59;;;;;;;2.85;2.55;;;;;;;15.31;82.54;95785.59;5053412;28;20486;-80
2023/05/06 06:31:25;;;;;;;4.03;3.20;;;;;;;15.54;80.96;95784.88;5054690;28;20021;-81
2023/05/06 06:33:50;;;;;;;2.67;2.47;;;;;;;15.76;80.22;95785.13;5053045;28;20044;-81
2023/05/06 06:36:16;;;;;;;3.10;2.90;;;;;;;15.97;81.02;95778.44;5053987;28;20104;-80
2023/05/06 06:38:41;;;;;;;3.45;3.10;;;;;;;16.14;79.61;95773.84;5048940;28;20041;-80
2023/05/06 06:41:08;;;;;;;3.75;3.03;;;;;;;16.18;77.70;95777.81;5054333;28;20029;-79
2023/05/06 06:43:34;;;;;;;3.35;3.08;;;;;;;16.25;77.38;95770.81;5049789;28;20020;-80
2023/05/06 06:45:59;;;;;;;4.88;2.83;;;;;;;16.36;77.78;95772.25;5053965;28;20634;-80
2023/05/06 06:48:25;;;;;;;3.55;3.05;;;;;;;16.72;76.25;95768.97;5054320;28;20081;-80
2023/05/06 06:50:50;;;;;;;3.03;2.70;;;;;;;16.82;75.19;95771.38;5054248;28;20013;-85
2023/05/06 06:53:16;;;;;;;3.20;2.40;;;;;;;17.14;77.22;95765.97;5054161;28;20461;-80
2023/05/06 06:55:43;;;;;;;2.00;1.83;;;;;;;17.63;73.43;95767.28;5053056;28;20025;-79
2023/05/06 06:58:08;;;;;;;3.92;2.63;;;;;;;17.97;69.58;95773.03;5049474;28;20045;-80
2023/05/06 07:00:34;;;;;;;2.30;2.20;;;;;;;18.43;68.98;95770.09;5052948;28;20067;-83
2023/05/06 07:02:59;;;;;;;2.38;1.92;;;;;;;18.63;65.04;95774.78;5049517;28;20052;-80
2023/05/06 07:05:25;;;;;;;3.63;2.17;;;;;;;18.76;65.20;95768.75;5047461;28;20127;-80
2023/05/06 07:07:51;;;;;;;5.72;1.95;;;;;;;19.15;64.75;95775.47;5052747;28;20088;-77
2023/05/06 07:10:17;;;;;;;3.88;2.10;;;;;;;19.49;64.70;95761.50;5056598;28;20095;-80
2023/05/06 07:12:42;;;;;;;4.97;2.08;;;;;;;19.66;63.80;95757.50;5056771;28;20028;-74
2023/05/06 07:15:08;;;;;;;2.60;2.28;;;;;;;19.92;63.56;95766.69;5057791;28;20027;-75
2023/05/06 07:17:33;;;;;;;1.90;1.80;;;;;;;20.26;60.55;95756.13;5055974;28;20033;-83
2023/05/06 07:19:59;;;;;;;2.00;1.80;;;;;;;20.54;56.33;95760.50;5057110;28;20486;-76
2023/05/06 07:22:25;;;;;;;1.88;1.77;;;;;;;20.70;55.84;95753.94;5053604;28;20033;-79
2023/05/06 07:24:51;;;;;;;2.40;1.80;;;;;;;20.73;56.10;95764.25;5053626;28;20013;-79
2023/05/06 07:27:16;;;;;;;3.00;1.52;;;;;;;21.01;54.35;95760.56;5048567;28;20047;-77
2023/05/06 07:29:42;;;;;;;1.60;1.50;;;;;;;21.34;53.07;95762.41;5051504;28;20321;-78
2023/05/06 07:32:07;;;;;;;2.25;1.50;;;;;;;21.43;55.35;95760.31;5070976;28;20049;-79
2023/05/06 07:34:36;;;;;;;6.70;1.92;;;;;;;21.45;54.11;95760.94;5054072;28;20421;-79
2023/05/06 07:37:02;;;;;;;2.63;1.73;;;;;;;21.20;55.97;95766.13;5072330;28;20560;-83
2023/05/06 07:39:28;;;;;;;2.22;1.65;;;;;;;21.63;54.36;95762.13;5054473;28;20072;-78
2023/05/06 07:41:53;;;;;;;2.05;1.75;;;;;;;22.07;50.14;95765.13;5055153;28;20116;-81
2023/05/06 07:44:18;;;;;;;2.67;1.70;;;;;;;22.39;51.09;95767.84;5054953;28;20036;-80
2023/05/06 07:46:44;;;;;;;2.15;1.60;;;;;;;22.34;47.43;95760.44;5056489;28;20021;-78
2023/05/06 07:49:09;;;;;;;6.15;1.98;;;;;;;22.58;47.64;95763.44;5072619;28;20057;-79
2023/05/06 07:51:35;;;;;;;3.50;1.73;;;;;;;22.99;46.62;95762.13;5057083;28;20431;-78
2023/05/06 07:54:00;;;;;;;3.33;1.50;;;;;;;23.17;46.11;95764.03;5056596;28;20027;-79
2023/05/06 07:56:26;;;;;;;2.63;1.80;;;;;;;23.24;44.44;95757.75;5057345;28;20152;-79
2023/05/06 07:58:51;;;;;;;4.68;1.70;;;;;;;23.07;46.90;95758.31;5056510;28;20056;-81
2023/05/06 08:01:16;;;;;;;1.92;1.73;;;;;;;23.22;45.22;95752.63;5055524;28;20442;-82
2023/05/06 08:03:42;;;;;;;2.03;1.52;;;;;;;23.12;44.33;95750.44;5054723;28;20013;-80
2023/05/06 08:06:08;;;;;;;1.80;1.70;;;;;;;23.27;45.38;95754.66;5056782;28;20108;-82
2023/05/06 08:08:33;;;;;;;1.67;1.58;;;;;;;23.97;43.02;95747.31;5054520;28;20104;-77
2023/05/06 08:10:59;;;;;;;2.08;1.60;;;;;;;23.66;43.41;95744.56;5053429;28;20553;-77
2023/05/06 08:13:26;;;;;;;4.55;1.80;;;;;;;23.86;44.68;95743.50;5054609;28;20056;-75
2023/05/06 08:15:52;;;;;;;3.05;2.40;;;;;;;24.31;42.93;95736.97;5056610;28;20017;-73
2023/05/06 08:18:17;;;;;;;2.25;1.80;;;;;;;24.54;42.38;95738.94;5056037;28;20016;-74
2023/05/06 08:20:43;;;;;;;2.33;1.60;;;;;;;24.78;40.56;95744.41;5053394;28;20033;-73
2023/05/06 08:23:08;;;;;;;7.75;1.85;;;;;;;24.29;41.45;95733.69;5055166;28;20024;-73
2023/05/06 08:25:34;;;;;;;2.00;1.80;;;;;;;24.14;42.69;95744.84;5054481;28;20028;-71
2023/05/06 08:27:59;;;;;;;2.20;2.00;;;;;;;24.67;40.09;95739.78;5053181;28;20013;-71
2023/05/06 08:30:25;;;;;;;2.75;2.10;;;;;;;24.47;40.00;95738.22;5056219;28;20078;-72
2023/05/06 08:32:51;;;;;;;5.97;2.00;;;;;;;24.83;38.43;95735.63;5055570;28;20461;-74
2023/05/06 08:35:16;;;;;;;1.80;1.70;;;;;;;24.10;41.17;95730.22;5056171;28;20031;-72
2023/05/06 08:37:42;;;;;;;3.33;2.20;;;;;;;24.68;40.44;95728.78;5054318;28;20020;-72
2023/05/06 08:40:17;;;;;;;2.08;1.85;;;;;;;23.96;40.89;95735.72;5055743;28;20045;-75
2023/05/06 08:42:48;;;;;;;2.40;2.00;;;;;;;23.79;41.65;95729.34;5043729;28;20479;-74
2023/05/06 08:45:17;;;;;;;3.05;1.60;;;;;;;24.08;41.45;95726.94;5053945;28;20048;-75
2023/05/06 08:47:43;;;;;;;3.75;1.92;;;;;;;24.33;41.09;95726.81;5051973;28;20107;-75
2023/05/06 08:50:09;;;;;;;2.45;2.10;;;;;;;24.79;39.73;95726.38;5054328;28;20071;-76
2023/05/06 08:52:36;;;;;;;3.17;1.85;;;;;;;24.25;40.93;95727.13;5040045;28;20089;-74
2023/05/06 08:55:03;;;;;;;2.60;2.17;;;;;;;23.96;41.54;95726.84;5055576;28;20036;-78
2023/05/06 08:57:31;;;;;;;3.17;1.80;;;;;;;23.78;42.71;95730.38;5055655;28;20025;-74
2023/05/06 08:59:57;;;;;;;2.85;1.70;;;;;;;24.13;41.15;95729.75;5055823;28;20107;-77
2023/05/06 09:02:23;;;;;;;2.75;1.90;;;;;;;24.05;41.55;95730.09;5055652;28;20021;-77
2023/05/06 09:04:48;;;;;;;2.00;1.90;;;;;;;24.17;41.51;95733.63;5055758;28;20021;-74
2023/05/06 09:07:14;;;;;;;3.28;2.15;;;;;;;23.97;42.45;95734.69;5055867;28;20025;-73
2023/05/06 09:09:39;;;;;;;1.92;1.83;;;;;;;24.04;42.48;95731.94;5055609;28;20021;-72
2023/05/06 09:12:12;;;;;;;6.57;2.00;;;;;;;24.62;40.00;95718.94;5055801;28;20025;-74
2023/05/06 09:14:38;;;;;;;3.65;1.90;;;;;;;24.86;39.34;95713.63;5057218;28;20025;-72
2023/05/06 09:17:04;;;;;;;4.88;2.20;;;;;;;24.52;40.68;95716.81;5055414;28;20112;-75
2023/05/06 09:19:30;;;;;;;1.77;1.67;;;;;;;24.46;40.65;95712.34;5069566;28;20476;-73
2023/05/06 09:21:56;;;;;;;1.80;1.70;;;;;;;24.20;41.43;95708.16;5057342;28;20568;-73
2023/05/06 09:24:22;;;;;;;1.90;1.80;;;;;;;24.17;40.90;95707.56;5054799;28;20413;-74
2023/05/06 09:26:50;;;;;;;9.57;1.65;;;;;;;24.31;39.84;95708.22;5056210;28;20114;-82
2023/05/06 09:29:16;;;;;;;2.95;1.85;;;;;;;24.62;39.65;95697.41;5061432;28;20032;-77
2023/05/06 09:31:46;;;;;;;4.50;1.95;;;;;;;25.08;39.26;95694.22;5058022;28;20082;-69
2023/05/06 09:34:12;;;;;;;3.83;2.10;;;;;;;25.03;39.43;95694.91;5054973;28;20025;-71
2023/05/06 09:36:38;;;;;;;1.88;1.70;;;;;;;24.95;38.83;95689.88;5058654;28;20027;-70
2023/05/06 09:39:04;;;;;;;2.50;2.03;;;;;;;24.75;39.64;95688.34;5062445;28;20044;-69
2023/05/06 09:41:29;;;;;;;2.38;1.80;;;;;;;24.71;40.20;95679.06;5050338;28;20021;-71
2023/05/06 09:43:56;;;;;;;3.60;2.42;;;;;;;24.93;39.45;95684.72;5052333;28;20420;-71
2023/05/06 09:46:23;;;;;;;2.30;2.10;;;;;;;25.19;38.49;95690.69;5045188;28;20592;-69
2023/05/06 09:48:51;;;;;;;6.32;2.65;;;;;;;25.33;39.02;95680.50;5053281;28;20127;-70
2023/05/06 09:51:17;;;;;;;2.75;2.55;;;;;;;25.79;38.27;95677.16;5053590;28;20393;-70
2023/05/06 09:53:44;;;;;;;3.88;2.70;;;;;;;26.07;37.70;95676.34;5051986;28;20078;-76
2023/05/06 09:56:10;;;;;;;2.80;2.53;;;;;;;26.16;36.81;95680.34;5044381;28;20398;-76
2023/05/06 09:58:37;;;;;;;2.50;2.10;;;;;;;25.32;38.66;95673.50;5054080;28;20051;-74
2023/05/06 10:01:05;;;;;;;5.53;2.42;;;;;;;24.74;40.82;95670.53;5079023;28;20528;-74
2023/05/06 10:03:32;;;;;;;4.18;2.80;;;;;;;24.99;39.88;95669.50;5057274;28;20013;-75
2023/05/06 10:05:59;;;;;;;2.28;2.00;;;;;;;25.17;39.34;95664.00;5060945;28;20036;-75
2023/05/06 10:08:25;;;;;;;2.40;2.20;;;;;;;25.35;38.82;95662.22;5051253;28;20107;-76
2023/05/06 10:10:52;;;;;;;6.20;2.30;;;;;;;25.07;38.53;95650.28;5049219;28;20037;-76
2023/05/06 10:13:20;;;;;;;2.53;2.15;;;;;;;25.01;38.80;95649.38;5039135;28;20036;-76
2023/05/06 10:15:47;;;;;;;2.30;2.08;;;;;;;25.77;38.88;95655.03;5053280;28;20036;-73
2023/05/06 10:18:15;;;;;;;2.10;1.85;;;;;;;25.49;39.07;95648.50;5043519;28;20085;-76
2023/05/06 10:20:42;;;;;;;2.38;2.17;;;;;;;25.82;37.89;95649.72;5045670;28;20112;-77
2023/05/06 10:23:41;;;;;;;2.45;2.08;;;;;;;26.20;36.50;95648.31;5052666;28;20027;-74
2023/05/06 10:26:10;;;;;;;5.85;2.25;;;;;;;26.13;37.00;95643.03;5047712;28;20379;-74
2023/05/06 10:28:40;;;;;;;2.42;2.22;;;;;;;26.01;36.96;95636.84;5047541;28;20115;-73
2023/05/06 10:31:12;;;;;;;2.60;2.40;;;;;;;26.30;36.02;95640.38;5051111;28;20056;-73
2023/05/06 10:33:45;;;;;;;2.83;1.95;;;;;;;25.86;35.42;95637.41;5045073;28;20444;-77
2023/05/06 10:36:26;;;;;;;2.72;2.53;;;;;;;25.97;37.07;95639.22;5057318;28;20024;-74
2023/05/06 10:39:00;;;;;;;4.47;2.47;;;;;;;25.84;37.31;95636.81;5041812;28;20412;-74
2023/05/06 10:41:27;;;;;;;3.50;2.40;;;;;;;26.08;36.73;95636.72;5045423;28;20029;-72
2023/05/06 10:43:58;;;;;;;5.45;2.20;;;;;;;26.10;36.92;95631.91;5054845;28;20280;-73
2023/05/06 10:46:27;;;;;;;1.60;1.50;;;;;;;26.31;33.86;95639.31;5058311;28;20088;-72
2023/05/06 10:49:09;;;;;;;2.10;1.55;;;;;;;26.03;35.65;95629.34;5047542;28;20490;-72
2023/05/06 10:51:36;;;;;;;2.40;1.73;;;;;;;26.34;34.81;95631.78;5053290;28;20037;-72
2023/05/06 10:54:17;;;;;;;2.53;2.03;;;;;;;26.35;35.16;95628.03;5047303;28;20485;-73
2023/05/06 10:56:48;;;;;;;5.05;1.80;;;;;;;26.46;34.38;95619.88;5068343;28;20041;-81
2023/05/06 10:59:21;;;;;;;2.20;1.92;;;;;;;26.60;35.28;95617.66;5054477;28;20029;-72
2023/05/06 11:01:54;;;;;;;2.50;2.08;;;;;;;26.59;36.64;95609.81;5055684;28;20045;-79
2023/05/06 11:04:20;;;;;;;3.05;2.28;;;;;;;27.12;34.48;95617.63;5060680;28;20033;-75
2023/05/06 11:06:50;;;;;;;1.80;1.70;;;;;;;27.60;33.43;95610.69;5036955;28;20457;-70
2023/05/06 11:09:25;;;;;;;3.40;1.92;;;;;;;27.33;34.50;95607.09;5050238;28;20194;-72
2023/05/06 11:12:01;;;;;;;2.78;2.10;;;;;;;27.19;35.48;95609.34;5054224;28;20119;-70
2023/05/06 11:14:30;;;;;;;1.85;1.70;;;;;;;27.24;32.88;95599.44;5057486;28;20041;-71
2023/05/06 11:17:00;;;;;;;2.20;2.00;;;;;;;26.85;35.13;95602.94;5057295;28;20481;-71
2023/05/06 11:19:30;;;;;;;2.13;1.92;;;;;;;26.86;34.42;95599.19;5056357;28;20025;-71
2023/05/06 11:21:58;;;;;;;3.25;2.08;;;;;;;26.71;35.03;95597.03;5056149;28;20108;-71
2023/05/06 11:24:26;;;;;;;6.72;2.00;;;;;;;27.41;32.57;95591.25;5054364;28;20017;-71
2023/05/06 11:26:51;;;;;;;8.65;2.25;;;;;;;26.81;35.16;95592.88;5056955;28;20525;-69
2023/05/06 11:29:18;;;;;;;3.42;2.08;;;;;;;26.67;36.20;95585.09;5056625;28;20362;-70